Time;durP1;ratioP1;P1;durP2;ratioP2;P2;SDS_P1;SDS_P2;PMS_P1;PMS_P2;Temp;Humidity;BMP_temperature;BMP_pressure;BME280_temperature;BME280_humidity;BME280_pressure;Samples;Min_cycle;Max_cycle;Signal;HPM_P1;HPM_P2
2022/10/03 00:01:42;;;;;;;;;;;13.80;99.90;;;11.98;92.72;99964.34;10536028;28;19935;-83
2022/10/03 00:07:19;;;;;;;;;;;13.80;99.90;;;11.97;92.46;99971.53;10542674;28;19928;-83
2022/10/03 00:12:41;;;;;;;;;;;13.80;99.90;;;11.93;92.57;99982.72;10515664;28;19928;-83
2022/10/03 00:18:11;;;;;;;;;;;13.80;99.90;;;11.87;92.52;99975.47;10539460;28;19935;-83
2022/10/03 00:23:25;;;;;;;;;;;13.80;99.90;;;11.82;92.64;99967.22;10545881;28;20024;-83
2022/10/03 00:29:20;;;;;;;;;;;13.70;99.90;;;11.79;92.78;99968.34;10541066;28;19936;-83
2022/10/03 00:34:47;;;;;;;;;;;13.70;99.90;;;11.78;92.53;99966.69;10453338;28;19959;-83
2022/10/03 00:40:10;;;;;;;;;;;13.60;99.90;;;11.75;92.24;99969.72;10537362;28;19935;-83
2022/10/03 00:45:44;;;;;;;;;;;13.60;99.90;;;11.74;91.74;99965.41;10527623;28;19979;-83
2022/10/03 00:51:10;;;;;;;;;;;13.60;99.90;;;11.71;91.56;99979.09;10533582;28;20015;-83
2022/10/03 00:56:14;;;;;;;;;;;13.60;99.90;;;11.66;91.26;99963.66;10534396;28;19958;-83
2022/10/03 01:01:23;;;;;;;;;;;13.50;99.90;;;11.66;91.03;99962.81;10532700;28;20213;-83
2022/10/03 01:06:44;;;;;;;;;;;13.50;99.90;;;11.65;90.80;99963.84;10521104;28;19967;-83
2022/10/03 01:12:26;;;;;;;;;;;13.50;99.90;;;11.63;90.62;99963.16;10538825;28;19928;-83
2022/10/03 01:17:38;;;;;;;;;;;13.50;99.90;;;11.60;90.26;99961.72;10538430;28;19967;-84
2022/10/03 01:22:56;;;;;;;;;;;13.50;99.90;;;11.59;90.16;99977.88;10540065;28;19934;-83
2022/10/03 01:34:55;;;;;;;;;;;13.40;99.90;;;11.51;89.73;99984.06;10533668;28;19928;-83
2022/10/03 01:40:28;;;;;;;;;;;13.40;99.90;;;11.48;89.65;99982.59;10426492;28;19935;-83
2022/10/03 01:45:58;;;;;;;;;;;13.30;99.90;;;11.44;89.71;99994.59;10532185;28;19935;-84
2022/10/03 01:51:20;;;;;;;;;;;13.30;99.90;;;11.35;89.80;99994.84;10538186;28;19952;-83
2022/10/03 01:56:51;;;;;;;;;;;13.20;99.90;;;11.25;90.34;100011.03;10540710;28;19928;-83
2022/10/03 02:02:09;;;;;;;;;;;13.20;99.90;;;11.16;91.22;100020.09;10548009;28;20422;-83
2022/10/03 02:07:27;;;;;;;;;;;13.00;99.90;;;11.11;91.93;100015.28;10534121;28;19928;-84
2022/10/03 02:12:35;;;;;;;;;;;13.00;99.90;;;11.09;92.67;100013.78;10537846;28;19929;-83
2022/10/03 02:18:11;;;;;;;;;;;12.90;99.90;;;11.06;93.01;100027.47;10538492;28;19928;-83
2022/10/03 02:23:30;;;;;;;;;;;12.90;99.90;;;11.01;93.42;100019.16;10510812;28;19929;-84
2022/10/03 02:28:54;;;;;;;;;;;12.90;99.90;;;10.98;93.68;100031.81;10535357;28;19928;-83
2022/10/03 02:34:23;;;;;;;;;;;12.90;99.90;;;10.94;93.76;100035.00;10542741;28;19981;-84
2022/10/03 02:39:29;;;;;;;;;;;12.80;99.90;;;10.88;94.19;100041.84;10532340;28;19934;-83
2022/10/03 02:44:40;;;;;;;;;;;12.70;99.90;;;10.87;94.45;100055.31;10542960;28;20372;-83
2022/10/03 02:49:55;;;;;;;;;;;12.70;99.90;;;10.87;94.83;100042.00;10548169;28;19928;-83
2022/10/03 02:55:22;;;;;;;;;;;12.70;99.90;;;10.86;94.90;100032.38;10541197;28;19935;-83
2022/10/03 03:01:03;;;;;;;;;;;12.70;99.90;;;10.83;95.17;100033.53;10546495;28;19928;-83
2022/10/03 03:06:37;;;;;;;;;;;12.70;99.90;;;10.81;95.39;100037.38;10517644;28;19928;-83
2022/10/03 03:11:58;;;;;;;;;;;12.70;99.90;;;10.76;95.51;100043.22;10490594;28;19929;-83
2022/10/03 03:17:29;;;;;;;;;;;12.60;99.90;;;10.73;95.84;100051.53;10541613;28;20023;-83
2022/10/03 03:22:53;;;;;;;;;;;12.60;99.90;;;10.72;96.01;100058.66;10540183;28;19928;-83
2022/10/03 03:28:19;;;;;;;;;;;12.60;99.90;;;10.74;96.06;100058.53;10522246;28;20023;-83
2022/10/03 03:33:25;;;;;;;;;;;12.60;99.90;;;10.76;96.14;100063.66;10523083;28;19934;-83
2022/10/03 03:38:49;;;;;;;;;;;12.60;99.90;;;10.74;96.09;100069.16;10522993;28;19958;-83
2022/10/03 03:44:23;;;;;;;;;;;12.60;99.90;;;10.74;95.92;100068.31;10540502;28;20002;-84
2022/10/03 03:50:03;;;;;;;;;;;12.60;99.90;;;10.70;96.06;100071.31;10525943;28;20412;-84
2022/10/03 03:55:23;;;;;;;;;;;12.60;99.90;;;10.67;95.99;100066.31;10546839;28;19928;-84
2022/10/03 04:00:34;;;;;;;;;;;12.60;99.90;;;10.62;96.06;100062.56;10532414;28;20475;-83
2022/10/03 04:05:37;;;;;;;;;;;12.50;99.90;;;10.58;96.02;100062.06;10541157;28;19928;-83
2022/10/03 04:11:05;;;;;;;;;;;12.50;99.90;;;10.55;95.98;100072.19;10540845;28;19939;-83
2022/10/03 04:22:03;;;;;;;;;;;12.40;99.90;;;10.49;95.95;100075.53;10538424;28;21881;-84
2022/10/03 04:27:19;;;;;;;;;;;12.40;99.90;;;10.43;95.89;100077.03;10540676;28;19928;-84
2022/10/03 04:32:33;;;;;;;;;;;12.30;99.90;;;10.42;95.76;100073.53;10533600;28;20020;-84
2022/10/03 04:37:51;;;;;;;;;;;12.30;99.90;;;10.39;95.90;100084.53;10544726;28;19934;-84
2022/10/03 04:43:09;;;;;;;;;;;12.30;99.90;;;10.41;96.15;100087.84;10542095;28;20392;-83
2022/10/03 04:48:35;;;;;;;;;;;12.30;99.90;;;10.40;96.13;100098.63;10545457;28;20310;-84
2022/10/03 04:53:56;;;;;;;;;;;12.20;99.90;;;10.43;96.31;100101.78;10539408;28;21247;-85
2022/10/03 04:59:25;;;;;;;;;;;12.30;99.90;;;10.45;96.16;100113.06;10540485;28;19963;-83
2022/10/03 05:05:02;;;;;;;;;;;12.30;99.90;;;10.49;96.16;100104.75;10525224;28;19932;-83
2022/10/03 05:10:24;;;;;;;;;;;12.30;99.90;;;10.50;96.21;100111.75;10543825;28;20312;-84
2022/10/03 05:15:33;;;;;;;;;;;12.40;99.90;;;10.57;95.87;100108.22;10537779;28;19928;-84
2022/10/03 05:20:40;;;;;;;;;;;12.50;99.90;;;10.63;95.46;100118.19;10526808;28;19928;-84
2022/10/03 05:26:16;;;;;;;;;;;12.50;99.90;;;10.64;94.99;100113.69;10530362;28;19959;-84
2022/10/03 05:31:55;;;;;;;;;;;12.50;99.90;;;10.64;94.32;100114.53;10526496;28;20288;-84
2022/10/03 05:37:03;;;;;;;;;;;12.50;99.90;;;10.65;93.85;100120.66;10539489;28;19971;-84
2022/10/03 05:42:21;;;;;;;;;;;12.50;99.90;;;10.63;93.55;100117.34;10539980;28;19928;-83
2022/10/03 05:47:43;;;;;;;;;;;12.50;99.90;;;10.62;93.09;100121.00;10505936;28;19928;-84
2022/10/03 05:52:51;;;;;;;;;;;12.50;99.90;;;10.64;92.96;100132.28;10525709;28;20031;-84
2022/10/03 05:58:13;;;;;;;;;;;12.50;99.90;;;10.64;92.39;100137.59;10542462;28;20347;-84
2022/10/03 06:03:20;;;;;;;;;;;12.50;99.90;;;10.61;92.24;100135.28;10535117;28;19978;-84
2022/10/03 06:08:40;;;;;;;;;;;12.50;99.90;;;10.60;91.99;100147.72;10548015;28;19928;-85
2022/10/03 06:13:52;;;;;;;;;;;12.50;99.90;;;10.60;91.80;100138.94;10540250;28;20027;-85
2022/10/03 06:19:11;;;;;;;;;;;12.50;99.90;;;10.65;91.44;100144.56;10541678;28;19928;-85
2022/10/03 06:24:42;;;;;;;;;;;12.50;99.90;;;10.75;91.10;100155.03;10533480;28;20352;-85
2022/10/03 06:30:04;;;;;;;;;;;12.60;99.90;;;10.81;90.43;100157.84;10542769;28;19950;-84
2022/10/03 06:35:13;;;;;;;;;;;12.60;99.90;;;10.91;90.13;100173.56;10500352;28;19936;-84
2022/10/03 06:40:47;;;;;;;;;;;12.70;99.90;;;10.98;89.44;100170.09;10522446;28;19937;-84
2022/10/03 06:46:08;;;;;;;;;;;12.80;99.90;;;11.05;88.99;100188.84;10522113;28;19929;-84
2022/10/03 06:51:30;;;;;;;;;;;12.90;99.90;;;11.12;88.67;100194.31;10542574;28;20385;-85
2022/10/03 06:57:02;;;;;;;;;;;13.00;99.90;;;11.19;87.93;100187.28;10520222;28;19936;-84
2022/10/03 07:02:37;;;;;;;;;;;13.10;99.90;;;11.24;87.28;100193.75;10542487;28;19990;-84
2022/10/03 07:08:10;;;;;;;;;;;13.10;99.90;;;11.34;86.60;100195.38;10503059;28;19936;-84
2022/10/03 07:13:38;;;;;;;;;;;13.20;99.90;;;11.47;85.28;100204.47;10488728;28;19928;-84
2022/10/03 07:19:02;;;;;;;;;;;13.30;99.90;;;11.57;84.39;100214.88;10529300;28;19928;-85
2022/10/03 07:24:24;;;;;;;;;;;13.40;99.90;;;11.70;84.22;100209.03;10541703;28;19929;-85
2022/10/03 07:29:34;;;;;;;;;;;13.50;99.90;;;11.82;83.83;100217.47;10547629;28;20039;-84
2022/10/03 07:35:08;;;;;;;;;;;13.70;99.90;;;11.93;82.95;100223.19;10528714;28;19998;-85
2022/10/03 07:40:29;;;;;;;;;;;13.80;99.90;;;12.01;82.01;100222.34;10547021;28;20014;-86
2022/10/03 07:45:44;;;;;;;;;;;13.90;99.90;;;12.10;81.78;100220.44;10530623;28;19958;-85
2022/10/03 07:51:05;;;;;;;;;;;14.00;99.90;;;12.26;81.42;100231.00;10531235;28;19928;-85
2022/10/03 07:56:20;;;;;;;;;;;14.10;99.90;;;12.42;79.91;100206.06;10513618;28;20387;-86
2022/10/03 08:01:35;;;;;;;;;;;14.30;99.90;;;12.56;78.67;100215.91;10507443;28;20311;-85
2022/10/03 08:07:00;;;;;;;;;;;14.40;99.90;;;12.62;77.89;100206.38;10521308;28;19972;-85
2022/10/03 08:12:40;;;;;;;;;;;14.50;99.90;;;12.71;77.14;100206.09;10504638;28;19929;-85
2022/10/03 08:18:08;;;;;;;;;;;14.60;99.90;;;12.83;76.68;100207.34;10506687;28;19929;-85
2022/10/03 08:23:29;;;;;;;;;;;14.70;99.90;;;12.94;76.53;100195.38;10523853;28;19928;-85
2022/10/03 08:29:09;;;;;;;;;;;14.80;99.90;;;13.04;76.06;100203.94;10539168;28;20000;-85
2022/10/03 08:34:30;;;;;;;;;;;14.90;99.90;;;12.99;73.92;100184.97;10544768;28;19932;-86
2022/10/03 08:39:51;;;;;;;;;;;14.80;99.90;;;13.01;73.84;100190.94;10523412;28;20023;-86
2022/10/03 08:45:07;;;;;;;;;;;14.90;99.90;;;13.16;73.49;100198.97;10517751;28;19928;-85
2022/10/03 08:50:39;;;;;;;;;;;15.00;99.90;;;13.27;73.35;100201.22;10509614;28;20434;-85
2022/10/03 08:56:23;;;;;;;;;;;15.20;99.90;;;13.30;72.07;100208.00;10502864;28;20024;-85
2022/10/03 09:01:49;;;;;;;;;;;15.20;99.90;;;13.46;71.84;100199.81;10507704;28;19928;-86
2022/10/03 09:07:27;;;;;;;;;;;15.30;99.90;;;13.74;71.25;100207.13;10535532;28;19929;-85
2022/10/03 09:13:00;;;;;;;;;;;15.60;99.90;;;13.68;69.12;100218.56;10544631;28;19928;-85
2022/10/03 09:18:21;;;;;;;;;;;15.60;99.50;;;13.59;69.42;100213.31;10516272;28;20347;-85
2022/10/03 09:23:37;;;;;;;;;;;15.50;99.40;;;13.61;69.24;100219.31;10540280;28;19935;-85
2022/10/03 09:28:49;;;;;;;;;;;15.50;99.20;;;13.56;68.26;100215.53;10534625;28;19936;-86
2022/10/03 09:34:20;;;;;;;;;;;15.40;98.10;;;13.48;67.95;100212.94;10545281;28;20007;-84
2022/10/03 09:40:00;;;;;;;;;;;15.40;98.30;;;13.57;68.75;100201.16;10529362;28;19970;-85
2022/10/03 09:45:42;;;;;;;;;;;15.50;99.10;;;13.69;69.24;100198.84;10543188;28;19936;-86
2022/10/03 09:51:29;;;;;;;;;;;15.60;99.00;;;13.82;68.00;100210.50;10481725;28;19951;-86
2022/10/03 09:56:38;;;;;;;;;;;15.70;98.10;;;14.02;68.70;100207.19;10538766;28;20288;-87
2022/10/03 10:02:05;;;;;;;;;;;15.90;98.90;;;14.25;67.30;100207.84;10536361;28;20378;-88
2022/10/03 10:07:45;;;;;;;;;;;16.20;97.90;;;14.45;65.69;100208.00;10519763;28;19929;-86
2022/10/03 10:13:03;;;;;;;;;;;16.30;96.70;;;14.61;63.96;100213.13;10537405;28;20403;-86
2022/10/03 10:18:32;;;;;;;;;;;16.50;95.40;;;14.50;64.24;100221.66;10543234;28;19935;-86
2022/10/03 10:23:41;;;;;;;;;;;16.50;95.70;;;14.37;65.76;100211.66;10512305;28;19936;-86
2022/10/03 10:29:02;;;;;;;;;;;16.30;96.70;;;14.41;65.90;100215.59;10502428;28;19932;-86
2022/10/03 10:34:29;;;;;;;;;;;16.40;96.70;;;14.35;65.63;100219.06;10541736;28;19935;-86
2022/10/03 10:40:11;;;;;;;;;;;16.30;95.80;;;14.16;64.84;100233.06;10511724;28;19929;-86
2022/10/03 10:45:38;;;;;;;;;;;16.10;95.00;;;13.99;65.54;100235.13;10504520;28;20422;-86
2022/10/03 10:51:18;;;;;;;;;;;15.90;95.90;;;13.89;65.61;100210.56;10501523;28;20388;-85
2022/10/03 10:56:48;;;;;;;;;;;15.80;95.90;;;13.89;65.87;100211.38;10517469;28;20019;-85
2022/10/03 11:02:22;;;;;;;;;;;15.80;96.20;;;13.92;66.24;100210.19;10535581;28;20396;-86
2022/10/03 11:07:46;;;;;;;;;;;15.80;96.10;;;13.93;66.90;100209.19;10505785;28;19935;-85
2022/10/03 11:13:19;;;;;;;;;;;15.90;96.60;;;14.03;67.13;100196.31;10541002;28;20368;-86
2022/10/03 11:18:46;;;;;;;;;;;16.00;96.80;;;14.18;65.48;100215.81;10535618;28;19929;-86
2022/10/03 11:24:07;;;;;;;;;;;16.10;95.50;;;14.19;64.96;100197.91;10506448;28;19928;-86
2022/10/03 11:29:19;;;;;;;;;;;16.20;95.10;;;14.08;65.83;100204.59;10541360;28;19929;-84
2022/10/03 11:34:37;;;;;;;;;;;16.00;96.20;;;13.95;66.85;100214.31;10517592;28;19928;-84
2022/10/03 11:40:08;;;;;;;;;;;15.90;96.60;;;13.89;67.38;100223.91;10547124;28;19928;-85
2022/10/03 11:45:23;;;;;;;;;;;15.80;97.10;;;13.80;67.48;100225.91;10518193;28;19929;-85
2022/10/03 11:50:28;;;;;;;;;;;15.70;96.80;;;13.70;67.78;100227.19;10506765;28;19959;-84
2022/10/03 11:55:32;;;;;;;;;;;15.60;96.50;;;13.63;68.65;100241.31;10538521;28;19936;-85
2022/10/03 12:00:37;;;;;;;;;;;15.60;97.90;;;13.58;70.03;100235.69;10525629;28;19932;-85
2022/10/03 12:12:09;;;;;;;;;;;15.50;98.00;;;13.54;71.48;100234.41;10480087;28;19929;-84
2022/10/03 12:17:23;;;;;;;;;;;15.50;99.00;;;13.48;72.92;100239.66;10507112;28;19933;-85
2022/10/03 12:22:50;;;;;;;;;;;15.40;99.90;;;13.29;73.32;100235.72;10504040;28;20316;-84
2022/10/03 12:28:21;;;;;;;;;;;15.20;99.90;;;13.38;73.18;100229.28;10504273;28;20320;-84
2022/10/03 12:33:28;;;;;;;;;;;15.20;99.70;;;13.46;73.92;100237.19;10502987;28;20467;-85
2022/10/03 12:38:55;;;;;;;;;;;15.40;99.90;;;13.42;72.82;100241.22;10534395;28;19978;-84
2022/10/03 12:44:19;;;;;;;;;;;15.30;99.60;;;13.40;72.01;100229.91;10503324;28;19982;-85
2022/10/03 12:49:45;;;;;;;;;;;15.30;98.80;;;13.43;72.12;100221.50;10504150;28;19929;-85
2022/10/03 12:55:00;;;;;;;;;;;15.40;99.00;;;13.51;72.02;100213.41;10492605;28;19937;-85
2022/10/03 13:00:16;;;;;;;;;;;15.50;98.60;;;13.54;70.51;100199.69;10522061;28;19967;-84
2022/10/03 13:05:28;;;;;;;;;;;15.50;97.80;;;13.58;69.33;100210.84;10520502;28;19928;-84
2022/10/03 13:10:54;;;;;;;;;;;15.50;96.80;;;13.65;67.79;100207.22;10545038;28;20449;-84
2022/10/03 13:16:14;;;;;;;;;;;15.60;96.20;;;13.73;67.86;100200.09;10542219;28;20449;-84
2022/10/03 13:21:41;;;;;;;;;;;15.60;96.70;;;13.75;68.33;100211.44;10535477;28;19935;-85
2022/10/03 13:27:03;;;;;;;;;;;15.70;96.90;;;13.80;69.15;100207.19;10542116;28;20034;-84
2022/10/03 13:32:21;;;;;;;;;;;15.70;97.50;;;13.83;68.79;100204.13;10542416;28;19928;-86
2022/10/03 13:37:43;;;;;;;;;;;15.80;97.30;;;13.89;68.01;100210.56;10524984;28;19929;-84
2022/10/03 13:42:52;;;;;;;;;;;15.80;96.80;;;13.92;68.79;100197.66;10541814;28;20022;-84
2022/10/03 13:48:00;;;;;;;;;;;15.90;97.70;;;13.93;68.52;100196.66;10510402;28;20023;-85
2022/10/03 13:53:23;;;;;;;;;;;15.90;96.80;;;13.87;68.20;100183.22;10500615;28;20376;-85
2022/10/03 13:58:49;;;;;;;;;;;15.80;96.80;;;13.76;68.78;100189.06;10525264;28;19928;-84
2022/10/03 14:04:19;;;;;;;;;;;15.60;97.50;;;13.66;69.12;100174.16;10544038;28;20369;-85
2022/10/03 14:09:31;;;;;;;;;;;15.60;97.60;;;13.58;69.65;100181.47;10527499;28;19986;-84
2022/10/03 14:14:51;;;;;;;;;;;15.50;97.70;;;13.59;69.41;100175.94;10523792;28;19986;-84
2022/10/03 14:20:00;;;;;;;;;;;15.50;97.40;;;13.61;68.89;100179.25;10539321;28;19952;-84
2022/10/03 14:25:18;;;;;;;;;;;15.50;97.10;;;13.72;68.01;100188.59;10535307;28;20414;-84
2022/10/03 14:30:34;;;;;;;;;;;15.60;96.30;;;13.76;66.68;100173.03;10545365;28;19978;-85
2022/10/03 14:35:46;;;;;;;;;;;15.60;95.40;;;13.74;66.86;100178.56;10521937;28;19932;-84
2022/10/03 14:41:02;;;;;;;;;;;15.60;96.00;;;13.67;66.16;100177.66;10541411;28;19928;-84
2022/10/03 14:46:06;;;;;;;;;;;15.60;95.50;;;13.55;65.12;100169.28;10545606;28;19951;-84
2022/10/03 14:51:17;;;;;;;;;;;15.40;94.70;;;13.48;65.19;100187.09;10510514;28;19935;-84
2022/10/03 14:56:23;;;;;;;;;;;15.40;94.90;;;13.42;64.80;100190.50;10507034;28;20369;-85
2022/10/03 15:01:27;;;;;;;;;;;15.30;94.40;;;13.36;64.72;100194.75;10546310;28;19928;-84
2022/10/03 15:06:33;;;;;;;;;;;15.20;94.30;;;13.28;65.01;100196.69;10535871;28;20050;-84
2022/10/03 15:11:44;;;;;;;;;;;15.20;94.90;;;13.20;65.85;100200.25;10549273;28;20023;-84
2022/10/03 15:16:53;;;;;;;;;;;15.10;95.10;;;13.12;66.64;100200.34;10533874;28;19936;-84
2022/10/03 15:22:23;;;;;;;;;;;15.10;95.60;;;13.06;67.34;100201.06;10514114;28;19935;-85
2022/10/03 15:27:27;;;;;;;;;;;15.00;96.00;;;13.03;67.35;100204.94;10526093;28;19928;-85
2022/10/03 15:32:38;;;;;;;;;;;15.00;96.00;;;13.07;67.24;100200.06;10521180;28;19978;-84
2022/10/03 15:37:42;;;;;;;;;;;15.00;95.50;;;13.07;66.93;100210.72;10537092;28;19936;-85
2022/10/03 15:43:03;;;;;;;;;;;15.00;95.70;;;13.02;67.28;100227.31;10542751;28;19928;-84
2022/10/03 15:48:12;;;;;;;;;;;15.00;95.80;;;13.03;67.72;100230.81;10541229;28;20311;-85
2022/10/03 15:53:23;;;;;;;;;;;15.00;95.90;;;13.01;67.91;100227.47;10524294;28;19928;-85
2022/10/03 15:58:46;;;;;;;;;;;14.90;95.90;;;12.98;67.39;100217.19;10529750;28;19935;-85
2022/10/03 16:03:52;;;;;;;;;;;14.90;95.50;;;12.93;67.52;100219.56;10522253;28;19936;-85
2022/10/03 16:08:57;;;;;;;;;;;14.90;95.70;;;12.85;67.45;100233.81;10526590;28;19935;-85
2022/10/03 16:14:25;;;;;;;;;;;14.80;95.70;;;12.77;67.75;100241.88;10535815;28;20046;-84
2022/10/03 16:19:37;;;;;;;;;;;14.70;95.90;;;12.69;67.80;100240.13;10540645;28;19929;-88
2022/10/03 16:25:02;;;;;;;;;;;14.60;95.60;;;12.63;67.98;100240.84;10536787;28;19936;-86
2022/10/03 16:30:11;;;;;;;;;;;14.60;96.00;;;12.53;68.36;100241.09;10532020;28;19975;-86
2022/10/03 16:35:23;;;;;;;;;;;14.50;96.20;;;12.47;68.62;100257.78;10538271;28;19928;-87
2022/10/03 16:40:26;;;;;;;;;;;14.40;96.20;;;12.42;68.90;100248.69;10546070;28;19928;-86
2022/10/03 16:45:33;;;;;;;;;;;14.30;96.40;;;12.38;69.21;100258.03;10538721;28;20327;-85
2022/10/03 16:50:41;;;;;;;;;;;14.30;96.50;;;12.35;69.37;100253.88;10513970;28;19929;-86
2022/10/03 16:55:47;;;;;;;;;;;14.30;96.60;;;12.33;69.40;100269.22;10520513;28;19928;-85
2022/10/03 17:01:21;;;;;;;;;;;14.20;96.60;;;12.29;69.33;100257.25;10531713;28;19928;-85
2022/10/03 17:06:33;;;;;;;;;;;14.20;96.70;;;12.28;69.54;100267.09;10517578;28;19963;-85
2022/10/03 17:11:37;;;;;;;;;;;14.30;96.80;;;12.22;69.76;100270.47;10520062;28;19932;-85
2022/10/03 17:17:16;;;;;;;;;;;14.20;96.90;;;12.18;70.11;100258.53;10532035;28;19928;-85
2022/10/03 17:22:22;;;;;;;;;;;14.20;96.90;;;12.12;70.37;100259.22;10538834;28;19932;-86
2022/10/03 17:27:47;;;;;;;;;;;14.10;97.00;;;12.11;69.81;100265.53;10544202;28;19935;-86
2022/10/03 17:32:56;;;;;;;;;;;14.10;96.70;;;12.10;69.59;100252.41;10539254;28;19929;-86
2022/10/03 17:38:19;;;;;;;;;;;14.00;96.30;;;12.09;69.56;100269.41;10540065;28;19935;-85
2022/10/03 17:43:48;;;;;;;;;;;14.10;96.50;;;12.08;69.38;100257.09;10514608;28;20462;-85
2022/10/03 17:49:11;;;;;;;;;;;14.00;96.40;;;12.05;69.36;100266.25;10538862;28;19928;-86
2022/10/03 17:54:27;;;;;;;;;;;14.00;96.60;;;12.03;69.15;100276.25;10539998;28;19933;-86
2022/10/03 17:59:42;;;;;;;;;;;14.00;96.40;;;11.98;69.36;100275.94;10537927;28;19978;-86
2022/10/03 18:04:52;;;;;;;;;;;13.90;96.50;;;11.94;69.71;100286.13;10538992;28;19932;-87
2022/10/03 18:09:55;;;;;;;;;;;13.90;96.70;;;11.90;70.31;100287.47;10532118;28;19928;-86
2022/10/03 18:15:38;;;;;;;;;;;13.90;97.00;;;11.86;70.68;100301.31;10540207;28;19929;-86
2022/10/03 18:21:10;;;;;;;;;;;13.80;97.30;;;11.80;71.07;100319.59;10502551;28;19929;-86
2022/10/03 18:26:19;;;;;;;;;;;13.80;97.40;;;11.80;71.31;100313.44;10450953;28;19933;-85
2022/10/03 18:31:24;;;;;;;;;;;13.80;97.60;;;11.79;71.48;100312.63;10516899;28;19929;-86
2022/10/03 18:36:33;;;;;;;;;;;13.80;97.70;;;11.76;71.78;100315.63;10500032;28;19928;-85
2022/10/03 18:41:44;;;;;;;;;;;13.70;98.00;;;11.69;72.39;100319.97;10526976;28;19928;-86
2022/10/03 18:46:51;;;;;;;;;;;13.60;98.30;;;11.61;73.00;100322.66;10530153;28;19936;-87
2022/10/03 18:52:14;;;;;;;;;;;13.60;98.60;;;11.55;73.48;100330.50;10518111;28;19928;-86
2022/10/03 18:57:24;;;;;;;;;;;13.50;98.90;;;11.46;73.96;100327.88;10516508;28;21799;-86
2022/10/03 19:03:00;;;;;;;;;;;13.40;98.90;;;11.45;74.19;100326.19;10524065;28;19932;-86
2022/10/03 19:08:19;;;;;;;;;;;13.40;99.00;;;11.44;74.24;100324.53;10529989;28;20031;-85
2022/10/03 19:13:39;;;;;;;;;;;13.40;99.20;;;11.44;74.56;100329.03;10536846;28;19928;-86
2022/10/03 19:18:45;;;;;;;;;;;13.40;99.30;;;11.38;74.31;100330.53;10529557;28;19928;-86
2022/10/03 19:24:10;;;;;;;;;;;13.40;99.10;;;11.29;74.52;100312.94;10539397;28;20369;-86
2022/10/03 19:29:24;;;;;;;;;;;13.30;99.00;;;11.25;74.37;100328.41;10534146;28;19932;-86
2022/10/03 19:34:40;;;;;;;;;;;13.20;99.10;;;11.22;74.29;100304.81;10526000;28;19928;-85
2022/10/03 19:39:43;;;;;;;;;;;13.10;99.10;;;11.21;74.16;100308.47;10530618;28;20019;-86
2022/10/03 19:44:46;;;;;;;;;;;13.10;99.00;;;11.25;73.89;100331.06;10543526;28;19929;-86
2022/10/03 19:50:31;;;;;;;;;;;13.20;98.60;;;11.26;73.51;100337.22;10539463;28;20004;-85
2022/10/03 19:55:38;;;;;;;;;;;13.30;98.90;;;11.19;73.93;100346.88;10496914;28;19959;-85
2022/10/03 20:00:55;;;;;;;;;;;13.20;98.80;;;11.14;74.18;100359.84;10531965;28;19932;-85
2022/10/03 20:06:05;;;;;;;;;;;13.10;98.90;;;11.06;74.21;100349.22;10537270;28;19929;-86
2022/10/03 20:11:29;;;;;;;;;;;13.10;99.00;;;10.98;74.48;100355.38;10539352;28;19929;-86
2022/10/03 20:16:39;;;;;;;;;;;13.00;99.10;;;10.91;74.73;100355.19;10530871;28;19928;-85
2022/10/03 20:21:50;;;;;;;;;;;12.90;99.00;;;10.84;74.88;100364.84;10526691;28;19928;-85
2022/10/03 20:27:04;;;;;;;;;;;12.90;99.10;;;10.80;75.04;100362.69;10541089;28;19928;-86
2022/10/03 20:32:15;;;;;;;;;;;12.80;99.20;;;10.75;75.11;100365.84;10538217;28;20364;-86
2022/10/03 20:37:48;;;;;;;;;;;12.80;99.20;;;10.72;75.03;100360.84;10536769;28;19928;-86
2022/10/03 20:42:52;;;;;;;;;;;12.70;99.20;;;10.67;75.13;100368.47;10534103;28;19928;-85
2022/10/03 20:48:20;;;;;;;;;;;12.70;99.10;;;10.66;75.14;100377.44;10540127;28;20384;-86
2022/10/03 20:53:25;;;;;;;;;;;12.60;99.10;;;10.65;75.27;100373.13;10521616;28;19932;-86
2022/10/03 20:58:48;;;;;;;;;;;12.70;99.40;;;10.63;75.31;100373.28;10540140;28;19935;-86
2022/10/03 21:04:12;;;;;;;;;;;12.60;99.20;;;10.60;75.63;100362.16;10543079;28;19935;-86
2022/10/03 21:09:20;;;;;;;;;;;12.60;99.60;;;10.56;75.74;100366.16;10524825;28;20385;-85
2022/10/03 21:14:29;;;;;;;;;;;12.50;99.60;;;10.52;76.08;100362.97;10528705;28;19928;-85
2022/10/03 21:19:31;;;;;;;;;;;12.50;99.90;;;10.52;76.20;100360.31;10539258;28;20350;-85
2022/10/03 21:24:46;;;;;;;;;;;12.50;99.90;;;10.52;76.19;100365.63;10533773;28;19928;-85
2022/10/03 21:29:52;;;;;;;;;;;12.50;99.90;;;10.52;76.20;100375.44;10504567;28;19935;-85
2022/10/03 21:34:57;;;;;;;;;;;12.50;99.90;;;10.49;76.45;100365.94;10538418;28;19936;-85
2022/10/03 21:40:01;;;;;;;;;;;12.40;99.90;;;10.47;76.63;100361.81;10536431;28;20001;-85
2022/10/03 21:45:21;;;;;;;;;;;12.50;99.90;;;10.45;76.86;100375.25;10526678;28;19959;-86
2022/10/03 21:50:27;;;;;;;;;;;12.40;99.90;;;10.42;76.74;100378.22;10521549;28;20034;-85
2022/10/03 21:55:39;;;;;;;;;;;12.40;99.90;;;10.41;77.23;100385.38;10539000;28;19928;-85
2022/10/03 22:01:11;;;;;;;;;;;12.40;99.90;;;10.34;77.33;100394.16;10536630;28;19978;-86
2022/10/03 22:06:19;;;;;;;;;;;12.40;99.90;;;10.32;77.70;100386.34;10543824;28;19963;-86
2022/10/03 22:11:28;;;;;;;;;;;12.40;99.90;;;10.26;78.05;100388.81;10521402;28;19984;-86
2022/10/03 22:16:42;;;;;;;;;;;12.30;99.90;;;10.23;78.29;100389.09;10537449;28;19972;-86
2022/10/03 22:22:13;;;;;;;;;;;12.30;99.90;;;10.24;77.98;100393.44;10541353;28;19928;-85
2022/10/03 22:27:29;;;;;;;;;;;12.30;99.90;;;10.26;77.80;100389.66;10521294;28;19928;-85
2022/10/03 22:32:41;;;;;;;;;;;12.30;99.90;;;10.30;77.76;100388.31;10516816;28;19978;-86
2022/10/03 22:37:43;;;;;;;;;;;12.40;99.90;;;10.34;77.55;100373.72;10533576;28;20363;-85
2022/10/03 22:42:51;;;;;;;;;;;12.40;99.90;;;10.41;76.92;100373.91;10548806;28;19950;-85
2022/10/03 22:47:58;;;;;;;;;;;12.40;99.90;;;10.44;76.55;100377.09;10542643;28;19934;-85
2022/10/03 22:53:02;;;;;;;;;;;12.50;99.90;;;10.47;76.48;100372.44;10515029;28;19982;-85
2022/10/03 22:58:06;;;;;;;;;;;12.50;99.90;;;10.49;76.69;100381.06;10526184;28;20051;-84
2022/10/03 23:03:19;;;;;;;;;;;12.50;99.90;;;10.43;77.08;100375.44;10546206;28;19929;-84
2022/10/03 23:08:40;;;;;;;;;;;12.50;99.90;;;10.38;77.42;100356.47;10528995;28;19928;-84
2022/10/03 23:13:43;;;;;;;;;;;12.50;99.90;;;10.26;77.91;100371.06;10549088;28;19928;-84
2022/10/03 23:19:21;;;;;;;;;;;12.40;99.90;;;10.16;78.52;100375.63;10544912;28;19928;-84
2022/10/03 23:24:29;;;;;;;;;;;12.30;99.90;;;10.13;78.87;100382.09;10515216;28;19935;-84
2022/10/03 23:29:32;;;;;;;;;;;12.20;99.90;;;10.17;78.92;100377.28;10546645;28;20406;-85
2022/10/03 23:34:35;;;;;;;;;;;12.20;99.90;;;10.19;78.86;100375.28;10524980;28;19932;-85
2022/10/03 23:39:54;;;;;;;;;;;12.20;99.90;;;10.14;79.10;100374.97;10535962;28;19936;-85
2022/10/03 23:44:57;;;;;;;;;;;12.10;99.90;;;10.11;79.48;100378.75;10533792;28;19928;-84
2022/10/03 23:50:03;;;;;;;;;;;12.10;99.90;;;10.10;79.47;100393.03;10545876;28;20391;-85
2022/10/03 23:55:07;;;;;;;;;;;12.00;99.90;;;10.19;79.51;100391.22;10537772;28;19935;-84
